createdAt,value
2022-12-17T00:01:09.028Z,27.05
2022-12-17T00:03:56.869Z,27.35
2022-12-17T00:06:42.752Z,27.98
2022-12-17T00:09:30.124Z,26.58
2022-12-17T00:12:15.610Z,28.40
2022-12-17T00:15:01.323Z,25.40
2022-12-17T00:17:47.096Z,26.15
2022-12-17T00:20:33.539Z,24.08
2022-12-17T00:23:24.185Z,22.63
2022-12-17T00:26:12.293Z,24.00
2022-12-17T00:28:58.766Z,26.70
2022-12-17T00:31:48.676Z,25.17
2022-12-17T00:37:20.006Z,23.05
2022-12-17T00:40:05.709Z,23.08
2022-12-17T00:42:51.324Z,23.02
2022-12-17T00:45:37.620Z,23.30
2022-12-17T00:48:23.417Z,23.15
2022-12-17T00:51:08.902Z,25.98
2022-12-17T00:53:54.712Z,23.00
2022-12-17T00:56:40.824Z,24.10
2022-12-17T00:59:26.260Z,25.88
2022-12-17T01:02:12.256Z,23.88
2022-12-17T01:04:57.788Z,23.60
2022-12-17T01:07:48.118Z,24.90
2022-12-17T01:10:33.761Z,22.88
2022-12-17T01:13:19.131Z,23.85
2022-12-17T01:16:05.000Z,24.40
2022-12-17T01:18:52.320Z,24.88
2022-12-17T01:21:37.853Z,24.80
2022-12-17T01:24:23.642Z,23.80
2022-12-17T01:27:09.152Z,25.70
2022-12-17T01:29:55.191Z,22.52
2022-12-17T01:32:40.909Z,24.85
2022-12-17T01:35:26.714Z,24.20
2022-12-17T01:38:12.452Z,23.63
2022-12-17T01:40:58.094Z,24.65
2022-12-17T01:43:55.126Z,23.45
2022-12-17T01:46:42.745Z,25.38
2022-12-17T01:49:29.790Z,24.13
2022-12-17T01:52:15.981Z,22.77
2022-12-17T01:55:01.890Z,22.42
2022-12-17T01:57:48.820Z,21.83
2022-12-17T02:00:36.754Z,22.17
2022-12-17T02:03:23.676Z,22.67
2022-12-17T02:06:23.352Z,21.65
2022-12-17T02:09:39.841Z,21.17
2022-12-17T02:12:53.182Z,21.70
2022-12-17T02:15:46.272Z,21.30
2022-12-17T02:18:39.900Z,21.90
2022-12-17T02:21:27.167Z,20.38
2022-12-17T02:24:37.895Z,24.15
2022-12-17T02:27:28.520Z,20.38
2022-12-17T02:30:18.293Z,20.85
2022-12-17T02:33:07.084Z,21.13
2022-12-17T02:35:59.382Z,20.42
2022-12-17T02:38:48.030Z,20.25
2022-12-17T02:44:19.656Z,20.63
2022-12-17T02:47:07.946Z,20.42
2022-12-17T02:49:53.987Z,20.35
2022-12-17T02:52:41.032Z,19.98
2022-12-17T02:55:27.241Z,21.30
2022-12-17T02:58:12.783Z,19.95
2022-12-17T03:00:58.413Z,20.65
2022-12-17T03:03:49.929Z,20.60
2022-12-17T03:06:36.091Z,20.60
2022-12-17T03:09:22.515Z,19.88
2022-12-17T03:12:08.871Z,21.30
2022-12-17T03:14:54.293Z,19.52
2022-12-17T03:17:39.944Z,21.30
2022-12-17T03:20:25.805Z,20.75
2022-12-17T03:23:11.396Z,21.55
2022-12-17T03:25:57.202Z,22.80
2022-12-17T03:28:42.622Z,20.90
2022-12-17T03:31:28.691Z,19.23
2022-12-17T03:34:14.351Z,21.75
2022-12-17T03:37:00.072Z,21.15
2022-12-17T03:39:45.576Z,19.63
2022-12-17T03:42:31.387Z,19.55
2022-12-17T03:45:17.140Z,19.25
2022-12-17T03:48:02.905Z,18.35
2022-12-17T03:50:48.641Z,17.50
2022-12-17T03:53:34.477Z,18.25
2022-12-17T03:56:20.346Z,17.50
2022-12-17T03:59:05.830Z,18.15
2022-12-17T04:01:51.626Z,18.30
2022-12-17T04:04:37.392Z,17.17
2022-12-17T04:07:23.300Z,17.30
2022-12-17T04:10:08.950Z,17.38
2022-12-17T04:12:54.892Z,17.15
2022-12-17T04:15:40.629Z,17.58
2022-12-17T04:18:26.211Z,18.17
2022-12-17T04:21:28.707Z,18.25
2022-12-17T04:24:14.433Z,19.52
2022-12-17T04:27:00.311Z,19.33
2022-12-17T04:29:46.052Z,18.10
2022-12-17T04:32:35.149Z,17.48
2022-12-17T04:35:21.081Z,16.45
2022-12-17T04:38:06.767Z,17.80
2022-12-17T04:40:52.670Z,17.17
2022-12-17T04:43:38.761Z,16.77
2022-12-17T04:46:24.761Z,16.77
2022-12-17T04:49:10.123Z,17.80
2022-12-17T04:51:55.763Z,16.58
2022-12-17T04:54:41.380Z,16.80
2022-12-17T04:57:27.035Z,20.23
2022-12-17T05:00:12.820Z,19.30
2022-12-17T05:02:58.693Z,17.67
2022-12-17T05:05:44.834Z,18.92
2022-12-17T05:08:30.703Z,18.20
2022-12-17T05:11:23.915Z,17.05
2022-12-17T05:14:09.595Z,18.05
2022-12-17T05:16:55.411Z,18.80
2022-12-17T05:19:40.845Z,18.48
2022-12-17T05:22:26.611Z,16.65
2022-12-17T05:25:12.457Z,17.35
2022-12-17T05:27:58.198Z,20.55
2022-12-17T05:30:43.779Z,19.00
2022-12-17T05:33:29.202Z,17.23
2022-12-17T05:36:19.357Z,17.67
2022-12-17T05:39:06.676Z,17.80
2022-12-17T05:41:53.310Z,17.90
2022-12-17T05:44:38.987Z,15.68
2022-12-17T05:47:24.882Z,16.65
2022-12-17T05:50:10.612Z,15.88
2022-12-17T05:52:56.172Z,16.17
2022-12-17T05:55:41.879Z,15.02
2022-12-17T05:58:30.924Z,14.77
2022-12-17T06:01:18.853Z,14.47
2022-12-17T06:04:04.377Z,13.43
2022-12-17T06:06:50.320Z,14.85
2022-12-17T06:09:36.491Z,14.45
2022-12-17T06:12:22.041Z,13.02
2022-12-17T06:15:07.552Z,14.48
2022-12-17T06:17:53.220Z,12.77
2022-12-17T06:20:38.641Z,14.07
2022-12-17T06:23:28.154Z,14.55
2022-12-17T06:26:15.512Z,12.52
2022-12-17T06:29:02.345Z,14.50
2022-12-17T06:31:48.030Z,13.95
2022-12-17T06:34:33.806Z,14.23
2022-12-17T06:37:19.551Z,13.15
2022-12-17T06:40:05.021Z,13.00
2022-12-17T06:42:50.621Z,12.48
2022-12-17T06:45:36.011Z,13.55
2022-12-17T06:48:27.063Z,12.27
2022-12-17T06:51:13.650Z,13.40
2022-12-17T06:54:00.283Z,13.27
2022-12-17T06:56:46.950Z,13.32
2022-12-17T06:59:32.434Z,12.38
2022-12-17T07:02:18.362Z,12.48
2022-12-17T07:05:04.085Z,12.68
2022-12-17T07:07:49.809Z,14.18
2022-12-17T07:10:35.548Z,12.45
2022-12-17T07:13:26.103Z,12.88
2022-12-17T07:16:23.058Z,13.65
2022-12-17T07:19:08.620Z,12.52
2022-12-17T07:21:54.423Z,12.55
2022-12-17T07:24:39.861Z,12.68
2022-12-17T07:27:25.455Z,11.80
2022-12-17T07:30:11.032Z,14.05
2022-12-17T07:32:56.555Z,12.80
2022-12-17T07:35:42.134Z,14.40
2022-12-17T07:38:29.637Z,14.10
2022-12-17T07:41:16.957Z,13.98
2022-12-17T07:44:02.744Z,12.40
2022-12-17T07:46:48.502Z,11.82
2022-12-17T07:49:34.195Z,12.27
2022-12-17T07:52:19.769Z,10.55
2022-12-17T07:55:05.114Z,11.77
2022-12-17T07:57:50.964Z,13.07
2022-12-17T08:00:36.703Z,11.50
2022-12-17T08:03:23.465Z,11.82
2022-12-17T08:06:09.156Z,11.98
2022-12-17T08:08:54.848Z,11.88
2022-12-17T08:11:40.570Z,11.20
2022-12-17T08:14:26.047Z,10.70
2022-12-17T08:17:11.672Z,10.90
2022-12-17T08:19:57.400Z,11.48
2022-12-17T08:22:42.795Z,11.88
2022-12-17T08:25:28.743Z,11.48
2022-12-17T08:28:48.519Z,10.48
2022-12-17T08:31:22.329Z,11.45
2022-12-17T08:34:08.355Z,11.10
2022-12-17T08:36:53.891Z,12.52
2022-12-17T08:39:39.318Z,11.95
2022-12-17T08:42:25.000Z,10.90
2022-12-17T08:45:10.904Z,10.35
2022-12-17T08:48:03.451Z,10.95
2022-12-17T08:50:49.552Z,10.90
2022-12-17T08:53:35.666Z,11.43
2022-12-17T08:56:21.470Z,10.75
2022-12-17T08:59:07.318Z,11.55
2022-12-17T09:01:53.124Z,10.57
2022-12-17T09:04:39.016Z,10.80
2022-12-17T09:07:24.505Z,10.25
2022-12-17T09:10:29.822Z,11.63
2022-12-17T09:13:19.612Z,11.95
2022-12-17T09:16:11.082Z,13.13
2022-12-17T09:18:56.967Z,12.70
2022-12-17T09:21:42.582Z,12.95
2022-12-17T09:24:28.954Z,13.02
2022-12-17T09:27:14.462Z,12.90
2022-12-17T09:30:00.036Z,13.40
2022-12-17T09:32:46.113Z,12.35
2022-12-17T09:35:31.720Z,12.98
2022-12-17T09:38:17.337Z,12.43
2022-12-17T09:41:07.246Z,11.70
2022-12-17T09:44:17.255Z,13.52
2022-12-17T09:49:52.596Z,13.23
2022-12-17T09:52:59.212Z,13.73
2022-12-17T09:55:53.484Z,12.68
2022-12-17T09:58:43.683Z,13.23
2022-12-17T10:01:41.506Z,11.95
2022-12-17T10:04:38.791Z,11.10
2022-12-17T10:07:31.904Z,12.88
2022-12-17T10:10:29.206Z,12.95
2022-12-17T10:13:15.111Z,11.25
2022-12-17T10:16:01.831Z,12.85
2022-12-17T10:18:48.575Z,10.93
2022-12-17T10:21:37.238Z,10.77
2022-12-17T10:24:28.680Z,10.57
2022-12-17T10:27:15.261Z,11.20
2022-12-17T10:30:03.235Z,11.27
2022-12-17T10:32:49.264Z,10.35
2022-12-17T10:35:44.830Z,10.75
2022-12-17T10:38:56.392Z,9.98
2022-12-17T10:41:46.138Z,10.73
2022-12-17T10:44:50.107Z,9.88
2022-12-17T10:47:41.426Z,11.20
2022-12-17T10:50:36.202Z,10.63
2022-12-17T10:53:23.600Z,11.25
2022-12-17T10:56:12.604Z,11.57
2022-12-17T10:59:10.965Z,10.77
2022-12-17T11:01:59.186Z,11.68
2022-12-17T11:05:11.257Z,11.02
2022-12-17T11:08:01.583Z,11.63
2022-12-17T11:10:54.171Z,11.88
2022-12-17T11:13:57.641Z,10.90
2022-12-17T11:16:49.483Z,10.40
2022-12-17T11:20:01.555Z,11.65
2022-12-17T11:23:05.341Z,11.65
2022-12-17T11:25:59.693Z,14.85
2022-12-17T11:28:48.368Z,14.52
2022-12-17T11:31:37.121Z,16.88
2022-12-17T11:34:46.205Z,15.73
2022-12-17T11:37:39.744Z,14.65
2022-12-17T11:40:36.974Z,20.52
2022-12-17T11:43:52.996Z,17.15
2022-12-17T11:47:04.181Z,17.48
2022-12-17T11:50:17.880Z,16.20
2022-12-17T11:53:37.703Z,16.65
2022-12-17T11:57:07.100Z,18.77
2022-12-17T12:00:00.871Z,18.45
2022-12-17T12:03:23.452Z,17.25
2022-12-17T12:06:14.386Z,17.83
2022-12-17T12:09:17.196Z,18.13
2022-12-17T12:12:33.774Z,18.60
2022-12-17T12:15:43.281Z,19.83
2022-12-17T12:18:50.079Z,35.80
2022-12-17T12:21:41.364Z,25.42
2022-12-17T12:25:10.626Z,17.70
2022-12-17T12:28:10.902Z,14.93
2022-12-17T12:34:04.349Z,15.13
2022-12-17T12:36:50.597Z,14.38
2022-12-17T12:39:41.580Z,12.82
2022-12-17T12:42:32.973Z,13.23
2022-12-17T12:45:41.675Z,12.15
2022-12-17T12:49:07.189Z,12.95
2022-12-17T12:51:56.972Z,13.93
2022-12-17T12:54:49.836Z,12.23
2022-12-17T12:57:47.634Z,11.93
2022-12-17T13:01:19.716Z,13.00
2022-12-17T13:04:11.842Z,11.65
2022-12-17T13:06:56.261Z,12.25
2022-12-17T13:09:35.079Z,11.65
2022-12-17T13:12:02.339Z,12.55
2022-12-17T13:14:56.835Z,12.57
2022-12-17T13:17:37.616Z,12.13
2022-12-17T13:20:23.083Z,11.80
2022-12-17T13:23:24.642Z,13.43
2022-12-17T13:26:17.402Z,13.43
2022-12-17T13:29:13.620Z,13.63
2022-12-17T13:32:03.123Z,14.63
2022-12-17T13:35:10.812Z,14.23
2022-12-17T13:38:00.483Z,14.95
2022-12-17T13:40:39.536Z,14.95
2022-12-17T13:43:24.153Z,18.10
2022-12-17T13:45:53.027Z,16.83
2022-12-17T13:48:26.624Z,18.35
2022-12-17T13:50:56.499Z,18.38
2022-12-17T13:53:23.565Z,18.77
2022-12-17T13:55:53.871Z,16.63
2022-12-17T13:58:26.544Z,17.92
2022-12-17T14:01:06.017Z,18.80
2022-12-17T14:03:57.136Z,18.35
2022-12-17T14:06:21.730Z,20.98
2022-12-17T14:08:51.143Z,19.73
2022-12-17T14:11:37.012Z,20.08
2022-12-17T14:14:08.771Z,20.13
2022-12-17T14:16:36.003Z,20.80
2022-12-17T14:19:03.193Z,22.75
2022-12-17T14:21:30.523Z,21.25
2022-12-17T14:23:58.311Z,23.20
2022-12-17T14:26:25.443Z,23.05
2022-12-17T14:28:55.309Z,22.48
2022-12-17T14:31:29.000Z,22.00
2022-12-17T14:34:11.626Z,24.33
2022-12-17T14:36:43.957Z,24.65
2022-12-17T14:39:18.661Z,23.17
2022-12-17T14:42:04.493Z,24.02
2022-12-17T14:44:32.181Z,22.20
2022-12-17T14:47:20.021Z,23.00
2022-12-17T14:50:25.392Z,23.13
2022-12-17T14:52:57.939Z,23.25
2022-12-17T14:55:57.681Z,22.48
2022-12-17T14:58:27.462Z,22.05
2022-12-17T15:01:21.059Z,22.73
2022-12-17T15:03:48.200Z,23.88
2022-12-17T15:06:20.306Z,21.90
2022-12-17T15:08:49.073Z,22.48
2022-12-17T15:11:22.920Z,22.70
2022-12-17T15:13:54.612Z,22.63
2022-12-17T15:16:23.446Z,23.65
2022-12-17T15:18:50.664Z,27.98
2022-12-17T15:21:18.989Z,24.77
2022-12-17T15:23:47.322Z,25.55
2022-12-17T15:26:15.465Z,26.13
2022-12-17T15:28:43.604Z,25.92
2022-12-17T15:31:12.858Z,26.60
2022-12-17T15:33:40.842Z,28.95
2022-12-17T15:38:38.079Z,25.45
2022-12-17T15:41:26.131Z,26.45
2022-12-17T15:43:53.341Z,27.45
2022-12-17T15:46:20.479Z,32.70
2022-12-17T15:48:50.492Z,27.05
2022-12-17T15:51:19.911Z,27.45
2022-12-17T15:53:48.380Z,26.23
2022-12-17T15:56:20.713Z,24.50
2022-12-17T15:58:47.951Z,25.05
2022-12-17T16:01:15.748Z,26.35
2022-12-17T16:03:43.236Z,26.52
2022-12-17T16:06:11.007Z,24.98
2022-12-17T16:08:41.306Z,26.45
2022-12-17T16:11:10.051Z,28.55
2022-12-17T16:13:38.233Z,35.17
2022-12-17T16:16:06.720Z,26.92
2022-12-17T16:18:34.523Z,23.15
2022-12-17T16:21:06.904Z,22.67
2022-12-17T16:23:34.431Z,22.73
2022-12-17T16:26:03.823Z,25.17
2022-12-17T16:28:31.396Z,26.45
2022-12-17T16:30:58.635Z,25.65
2022-12-17T16:33:28.729Z,22.70
2022-12-17T16:35:58.212Z,23.70
2022-12-17T16:38:25.261Z,24.13
2022-12-17T16:41:01.661Z,26.15
2022-12-17T16:43:32.850Z,28.10
2022-12-17T16:46:00.077Z,25.50
2022-12-17T16:48:27.098Z,26.20
2022-12-17T16:50:54.296Z,25.85
2022-12-17T16:53:21.324Z,26.70
2022-12-17T16:55:49.933Z,24.65
2022-12-17T16:58:18.081Z,23.75
2022-12-17T17:00:46.529Z,23.48
2022-12-17T17:03:14.052Z,24.65
2022-12-17T17:05:41.220Z,23.52
2022-12-17T17:08:08.385Z,24.75
2022-12-17T17:10:37.029Z,24.80
2022-12-17T17:13:04.770Z,22.35
2022-12-17T17:15:32.737Z,24.65
2022-12-17T17:18:01.925Z,26.23
2022-12-17T17:20:32.692Z,22.27
2022-12-17T17:23:00.066Z,23.85
2022-12-17T17:25:38.779Z,23.00
2022-12-17T17:28:14.554Z,24.17
2022-12-17T17:30:41.736Z,22.88
2022-12-17T17:33:08.923Z,23.52
2022-12-17T17:35:36.082Z,26.17
2022-12-17T17:38:03.136Z,24.65
2022-12-17T17:40:30.159Z,24.05
2022-12-17T17:42:57.232Z,24.23
2022-12-17T17:45:24.252Z,24.58
2022-12-17T17:47:51.351Z,26.95
2022-12-17T17:50:18.461Z,24.50
2022-12-17T17:52:45.599Z,24.65
2022-12-17T17:55:13.284Z,24.60
2022-12-17T17:57:40.380Z,24.58
2022-12-17T18:00:08.075Z,24.48
2022-12-17T18:02:36.999Z,22.00
2022-12-17T18:05:04.522Z,21.30
2022-12-17T18:07:31.570Z,22.83
2022-12-17T18:09:59.995Z,23.20
2022-12-17T18:12:45.814Z,23.98
2022-12-17T18:15:15.444Z,21.17
2022-12-17T18:17:50.100Z,21.42
2022-12-17T18:20:18.193Z,20.63
2022-12-17T18:22:46.617Z,22.48
2022-12-17T18:25:15.317Z,21.30
2022-12-17T18:27:43.633Z,21.90
2022-12-17T18:30:11.017Z,21.92
2022-12-17T18:32:38.033Z,21.27
2022-12-17T18:35:05.573Z,23.27
2022-12-17T18:37:32.627Z,21.02
2022-12-17T18:39:59.803Z,23.85
2022-12-17T18:42:45.495Z,22.55
2022-12-17T18:45:12.593Z,22.20
2022-12-17T18:47:39.582Z,23.98
2022-12-17T18:50:07.045Z,23.23
2022-12-17T18:52:34.112Z,27.38
2022-12-17T18:55:01.125Z,25.65
2022-12-17T18:57:28.220Z,24.45
2022-12-17T18:59:55.323Z,26.10
2022-12-17T19:02:22.668Z,27.30
2022-12-17T19:04:49.806Z,27.20
2022-12-17T19:07:16.841Z,27.25
2022-12-17T19:09:43.961Z,25.88
2022-12-17T19:12:11.021Z,26.42
2022-12-17T19:14:38.255Z,27.15
2022-12-17T19:17:06.231Z,29.23
2022-12-17T19:19:34.023Z,25.88
2022-12-17T19:22:02.258Z,27.77
2022-12-17T19:24:29.725Z,27.40
2022-12-17T19:26:56.963Z,29.35
2022-12-17T19:29:24.050Z,29.65
2022-12-17T19:31:51.550Z,28.05
2022-12-17T19:34:19.929Z,28.73
2022-12-17T19:36:47.996Z,28.60
2022-12-17T19:39:18.454Z,29.52
2022-12-17T19:41:46.146Z,29.25
2022-12-17T19:44:15.613Z,29.77
2022-12-17T19:46:43.616Z,31.00
2022-12-17T19:49:15.667Z,30.25
2022-12-17T19:51:44.567Z,30.85
2022-12-17T19:54:14.048Z,29.80
2022-12-17T19:56:42.362Z,33.65
2022-12-17T19:59:10.815Z,31.85
2022-12-17T20:01:44.443Z,31.90
2022-12-17T20:04:16.501Z,31.60
2022-12-17T20:06:44.697Z,31.63
2022-12-17T20:09:12.579Z,28.63
2022-12-17T20:11:40.084Z,28.67
2022-12-17T20:14:15.800Z,30.77
2022-12-17T20:16:55.357Z,27.58
2022-12-17T20:19:25.575Z,27.67
2022-12-17T20:21:53.411Z,28.20
2022-12-17T20:24:23.551Z,24.45
2022-12-17T20:26:54.941Z,25.33
2022-12-17T20:29:23.701Z,24.25
2022-12-17T20:31:52.762Z,25.67
2022-12-17T20:34:23.518Z,25.33
2022-12-17T20:36:53.241Z,25.35
2022-12-17T20:39:26.221Z,26.23
2022-12-17T20:41:54.597Z,26.10
2022-12-17T20:44:21.762Z,27.02
2022-12-17T20:46:48.860Z,24.83
2022-12-17T20:49:16.145Z,29.70
2022-12-17T20:51:43.836Z,23.35
2022-12-17T20:54:11.382Z,23.55
2022-12-17T20:56:39.432Z,22.23
2022-12-17T20:59:08.845Z,23.77
2022-12-17T21:01:37.219Z,23.25
2022-12-17T21:04:07.691Z,19.92
2022-12-17T21:06:41.062Z,20.88
2022-12-17T21:09:08.932Z,22.65
2022-12-17T21:11:38.063Z,22.52
2022-12-17T21:14:10.180Z,23.53
2022-12-17T21:16:38.420Z,24.77
2022-12-17T21:19:08.729Z,24.90
2022-12-17T21:21:37.927Z,24.02
2022-12-17T21:24:06.103Z,25.27
2022-12-17T21:26:36.122Z,33.70
2022-12-17T21:31:50.495Z,24.25
2022-12-17T21:34:25.268Z,24.83
2022-12-17T21:36:52.562Z,24.88
2022-12-17T21:39:20.648Z,23.90
2022-12-17T21:42:07.980Z,25.05
2022-12-17T21:44:35.950Z,22.33
2022-12-17T21:47:03.256Z,22.15
2022-12-17T21:49:30.571Z,22.90
2022-12-17T21:51:59.517Z,21.55
2022-12-17T21:54:26.802Z,18.55
2022-12-17T21:56:53.834Z,20.63
2022-12-17T21:59:20.954Z,20.90
2022-12-17T22:01:48.474Z,18.90
2022-12-17T22:04:15.631Z,19.88
2022-12-17T22:06:46.995Z,18.85
2022-12-17T22:09:58.449Z,20.05
2022-12-17T22:12:36.850Z,20.88
2022-12-17T22:15:07.413Z,20.20
2022-12-17T22:17:34.940Z,22.20
2022-12-17T22:20:02.197Z,21.90
2022-12-17T22:22:29.374Z,20.08
2022-12-17T22:24:56.531Z,20.38
2022-12-17T22:27:24.210Z,20.48
2022-12-17T22:30:10.031Z,22.58
2022-12-17T22:32:55.635Z,21.33
2022-12-17T22:37:10.784Z,21.52
2022-12-17T22:40:33.314Z,21.15
2022-12-17T22:44:38.093Z,21.23
2022-12-17T22:44:52.002Z,19.15
2022-12-17T22:46:42.092Z,20.08
2022-12-17T22:49:09.835Z,19.95
2022-12-17T22:51:38.065Z,19.55
2022-12-17T22:54:09.365Z,20.48
2022-12-17T22:57:11.165Z,18.25
2022-12-17T22:59:25.888Z,17.63
2022-12-17T23:01:53.054Z,18.13
2022-12-17T23:04:20.264Z,19.17
2022-12-17T23:06:47.557Z,18.70
2022-12-17T23:09:19.528Z,19.83
2022-12-17T23:11:48.655Z,18.80
2022-12-17T23:14:16.579Z,19.52
2022-12-17T23:16:43.935Z,18.40
2022-12-17T23:19:11.238Z,19.27
2022-12-17T23:21:38.866Z,20.20
2022-12-17T23:24:06.389Z,18.65
2022-12-17T23:26:36.075Z,20.13
2022-12-17T23:29:06.531Z,20.03
2022-12-17T23:31:37.588Z,20.15
2022-12-17T23:34:05.149Z,20.27
2022-12-17T23:36:32.496Z,21.08
2022-12-17T23:39:00.078Z,19.02
2022-12-17T23:41:29.782Z,20.35
2022-12-17T23:43:57.576Z,20.63
2022-12-17T23:46:26.431Z,19.55
2022-12-17T23:48:53.904Z,20.15
2022-12-17T23:51:22.916Z,21.45
2022-12-17T23:53:50.403Z,21.27
2022-12-17T23:56:20.144Z,23.50
2022-12-17T23:58:48.632Z,23.45
